TAF KRWL
KRWL 090529Z 0906/1006 25025G35KT P6SM VCSH BKN050 FM091500 25012KT 4SM -SN OVC025 FM091900 26010KT 1SM -SN BR OVC015=
METAR KRWL
WC KRWL
WS KRWL
WV KRWL